createdAt,value
2023-05-14T00:01:52.530Z,14.10
2023-05-14T00:04:22.759Z,14.00
2023-05-14T00:06:50.055Z,14.00
2023-05-14T00:09:17.456Z,13.90
2023-05-14T00:11:44.702Z,13.90
2023-05-14T00:14:12.196Z,13.90
2023-05-14T00:16:39.369Z,13.90
2023-05-14T00:19:06.842Z,13.80
2023-05-14T00:21:34.192Z,13.80
2023-05-14T00:24:01.979Z,13.80
2023-05-14T00:26:29.522Z,13.80
2023-05-14T00:28:56.858Z,13.80
2023-05-14T00:31:24.106Z,13.80
2023-05-14T00:33:51.668Z,13.80
2023-05-14T00:36:19.016Z,13.80
2023-05-14T00:38:46.377Z,13.80
2023-05-14T00:41:14.040Z,13.70
2023-05-14T00:43:41.550Z,13.70
2023-05-14T00:46:09.022Z,13.60
2023-05-14T00:48:36.930Z,13.60
2023-05-14T00:51:04.408Z,13.50
2023-05-14T00:53:32.182Z,13.40
2023-05-14T00:55:59.567Z,13.40
2023-05-14T00:58:26.911Z,13.40
2023-05-14T01:00:54.450Z,13.30
2023-05-14T01:03:21.851Z,13.40
2023-05-14T01:05:55.081Z,13.30
2023-05-14T01:08:33.746Z,13.30
2023-05-14T01:11:32.547Z,13.30
2023-05-14T01:14:05.795Z,13.30
2023-05-14T01:16:35.229Z,13.30
2023-05-14T01:19:03.529Z,13.30
2023-05-14T01:21:39.053Z,13.30
2023-05-14T01:24:06.974Z,13.20
2023-05-14T01:26:34.856Z,13.20
2023-05-14T01:29:22.983Z,13.10
2023-05-14T01:31:52.374Z,13.10
2023-05-14T01:34:23.302Z,13.00
2023-05-14T01:36:52.090Z,13.00
2023-05-14T01:39:33.085Z,13.00
2023-05-14T01:42:01.139Z,12.90
2023-05-14T01:44:28.750Z,12.90
2023-05-14T01:46:56.288Z,12.90
2023-05-14T01:49:23.777Z,12.80
2023-05-14T01:51:51.539Z,12.80
2023-05-14T01:54:19.045Z,12.70
2023-05-14T01:56:46.436Z,12.70
2023-05-14T01:59:13.615Z,12.60
2023-05-14T02:01:41.170Z,12.70
2023-05-14T02:04:08.796Z,12.60
2023-05-14T02:06:36.123Z,12.60
2023-05-14T02:09:05.190Z,12.60
2023-05-14T02:11:32.576Z,12.60
2023-05-14T02:14:00.138Z,12.60
2023-05-14T02:16:27.590Z,12.60
2023-05-14T02:18:55.388Z,12.60
2023-05-14T02:21:22.793Z,12.60
2023-05-14T02:23:50.620Z,12.60
2023-05-14T02:26:17.895Z,12.50
2023-05-14T02:28:46.249Z,12.50
2023-05-14T02:31:13.516Z,12.50
2023-05-14T02:33:41.228Z,12.40
2023-05-14T02:36:08.952Z,12.40
2023-05-14T02:38:36.610Z,12.40
2023-05-14T02:41:03.922Z,12.40
2023-05-14T02:43:31.103Z,12.40
2023-05-14T02:45:58.459Z,12.40
2023-05-14T02:48:26.672Z,12.40
2023-05-14T02:50:53.780Z,12.40
2023-05-14T02:53:21.314Z,12.30
2023-05-14T02:55:48.982Z,12.30
2023-05-14T02:58:16.425Z,12.30
2023-05-14T03:00:44.066Z,12.30
2023-05-14T03:03:12.891Z,12.20
2023-05-14T03:05:41.807Z,12.20
2023-05-14T03:08:09.124Z,12.20
2023-05-14T03:10:36.854Z,12.20
2023-05-14T03:13:04.205Z,12.20
2023-05-14T03:15:31.728Z,12.10
2023-05-14T03:17:59.541Z,12.10
2023-05-14T03:20:27.590Z,12.10
2023-05-14T03:22:56.508Z,12.00
2023-05-14T03:25:23.696Z,11.90
2023-05-14T03:27:51.022Z,11.80
2023-05-14T03:30:18.508Z,11.80
2023-05-14T03:32:46.470Z,11.80
2023-05-14T03:35:13.739Z,11.70
2023-05-14T03:37:41.540Z,11.60
2023-05-14T03:40:09.305Z,11.50
2023-05-14T03:42:36.760Z,11.40
2023-05-14T03:45:04.437Z,11.40
2023-05-14T03:47:32.216Z,11.40
2023-05-14T03:49:59.464Z,11.40
2023-05-14T03:52:27.271Z,11.40
2023-05-14T03:54:54.869Z,11.30
2023-05-14T03:57:22.194Z,11.30
2023-05-14T03:59:49.382Z,11.30
2023-05-14T04:02:16.901Z,11.30
2023-05-14T04:04:44.311Z,11.30
2023-05-14T04:07:11.762Z,11.20
2023-05-14T04:09:38.751Z,11.20
2023-05-14T04:12:06.753Z,11.20
2023-05-14T04:14:34.048Z,11.20
2023-05-14T04:17:01.263Z,11.20
2023-05-14T04:19:29.010Z,11.10
2023-05-14T04:21:56.587Z,11.00
2023-05-14T04:24:23.977Z,11.00
2023-05-14T04:26:53.640Z,10.90
2023-05-14T04:29:21.433Z,10.90
2023-05-14T04:31:50.483Z,11.00
2023-05-14T04:34:18.060Z,11.10
2023-05-14T04:36:45.888Z,11.20
2023-05-14T04:39:13.192Z,11.20
2023-05-14T04:41:40.627Z,11.30
2023-05-14T04:44:08.420Z,11.40
2023-05-14T04:46:36.281Z,11.50
2023-05-14T04:49:03.633Z,11.70
2023-05-14T04:51:31.278Z,11.80
2023-05-14T04:53:58.677Z,11.90
2023-05-14T04:56:26.398Z,12.00
2023-05-14T04:58:53.746Z,12.10
2023-05-14T05:01:22.507Z,12.20
2023-05-14T05:03:49.755Z,12.30
2023-05-14T05:06:17.234Z,12.40
2023-05-14T05:08:44.494Z,12.50
2023-05-14T05:11:12.262Z,12.60
2023-05-14T05:13:39.625Z,12.70
2023-05-14T05:16:07.065Z,12.80
2023-05-14T05:18:34.421Z,12.90
2023-05-14T05:21:01.798Z,13.00
2023-05-14T05:23:29.212Z,13.10
2023-05-14T05:25:56.590Z,13.30
2023-05-14T05:28:23.940Z,13.40
2023-05-14T05:30:51.640Z,13.50
2023-05-14T05:33:19.632Z,13.60
2023-05-14T05:35:48.445Z,13.70
2023-05-14T05:38:16.327Z,13.80
2023-05-14T05:40:43.674Z,13.90
2023-05-14T05:43:12.930Z,14.00
2023-05-14T05:45:41.545Z,14.10
2023-05-14T05:48:09.010Z,14.20
2023-05-14T05:50:36.859Z,14.30
2023-05-14T05:53:04.402Z,14.40
2023-05-14T05:55:31.998Z,14.50
2023-05-14T05:57:59.578Z,14.60
2023-05-14T06:00:29.280Z,14.80
2023-05-14T06:02:56.853Z,14.90
2023-05-14T06:05:27.128Z,15.00
2023-05-14T06:07:55.859Z,15.10
2023-05-14T06:10:23.337Z,15.30
2023-05-14T06:12:51.110Z,15.40
2023-05-14T06:15:19.157Z,15.50
2023-05-14T06:17:47.242Z,15.60
2023-05-14T06:20:14.822Z,15.60
2023-05-14T06:22:42.097Z,15.70
2023-05-14T06:25:09.901Z,15.80
2023-05-14T06:27:37.229Z,15.80
2023-05-14T06:30:05.220Z,15.90
2023-05-14T06:32:32.540Z,15.90
2023-05-14T06:35:00.044Z,15.90
2023-05-14T06:37:29.677Z,16.00
2023-05-14T06:39:58.055Z,16.00
2023-05-14T06:42:25.363Z,16.00
2023-05-14T06:44:53.078Z,16.10
2023-05-14T06:47:22.140Z,16.10
2023-05-14T06:49:49.226Z,16.20
2023-05-14T06:52:17.178Z,16.10
2023-05-14T06:54:44.720Z,16.20
2023-05-14T06:57:13.731Z,16.20
2023-05-14T06:59:40.990Z,16.30
2023-05-14T07:02:08.359Z,16.40
2023-05-14T07:04:36.681Z,16.40
2023-05-14T07:07:04.014Z,16.50
2023-05-14T07:09:31.204Z,16.60
2023-05-14T07:11:58.292Z,16.70
2023-05-14T07:14:25.708Z,16.80
2023-05-14T07:16:53.172Z,16.80
2023-05-14T07:19:20.335Z,16.90
2023-05-14T07:21:48.137Z,16.90
2023-05-14T07:24:15.298Z,16.90
2023-05-14T07:26:42.601Z,17.00
2023-05-14T07:29:10.042Z,17.00
2023-05-14T07:31:37.323Z,17.10
2023-05-14T07:34:04.630Z,17.10
2023-05-14T07:36:31.765Z,17.20
2023-05-14T07:38:59.094Z,17.20
2023-05-14T07:41:26.160Z,17.30
2023-05-14T07:43:53.432Z,17.30
2023-05-14T07:46:20.624Z,17.30
2023-05-14T07:48:47.939Z,17.40
2023-05-14T07:51:15.074Z,17.50
2023-05-14T07:53:42.430Z,17.60
2023-05-14T07:56:09.693Z,17.60
2023-05-14T07:58:37.092Z,17.60
2023-05-14T08:01:07.336Z,17.70
2023-05-14T08:03:35.699Z,17.80
2023-05-14T08:06:04.159Z,17.80
2023-05-14T08:08:31.698Z,17.90
2023-05-14T08:10:58.932Z,18.00
2023-05-14T08:13:26.293Z,18.10
2023-05-14T08:15:53.465Z,18.20
2023-05-14T08:18:20.683Z,18.20
2023-05-14T08:20:48.552Z,18.40
2023-05-14T08:23:15.884Z,18.50
2023-05-14T08:25:42.847Z,18.60
2023-05-14T08:28:11.819Z,18.80
2023-05-14T08:30:38.981Z,19.00
2023-05-14T08:33:06.408Z,19.20
2023-05-14T08:35:33.775Z,19.50
2023-05-14T08:38:01.021Z,19.70
2023-05-14T08:40:28.807Z,20.00
2023-05-14T08:42:58.598Z,20.30
2023-05-14T08:45:32.003Z,20.60
2023-05-14T08:48:01.008Z,20.80
2023-05-14T08:50:30.880Z,21.00
2023-05-14T08:52:58.763Z,21.10
2023-05-14T08:55:28.612Z,21.30
2023-05-14T08:57:59.008Z,21.40
2023-05-14T09:00:26.774Z,21.60
2023-05-14T09:02:56.375Z,21.70
2023-05-14T09:05:26.663Z,21.90
2023-05-14T09:07:54.028Z,22.00
2023-05-14T09:10:22.878Z,22.10
2023-05-14T09:12:50.366Z,22.10
2023-05-14T09:15:17.653Z,22.10
2023-05-14T09:17:45.495Z,22.20
2023-05-14T09:20:13.548Z,22.20
2023-05-14T09:22:40.884Z,22.30
2023-05-14T09:25:13.881Z,22.30
2023-05-14T09:27:41.059Z,22.40
2023-05-14T09:30:14.928Z,22.50
2023-05-14T09:32:46.335Z,22.70
2023-05-14T09:35:18.694Z,22.80
2023-05-14T09:37:47.780Z,23.00
2023-05-14T09:40:16.285Z,23.10
2023-05-14T09:42:43.837Z,23.30
2023-05-14T09:45:11.984Z,23.40
2023-05-14T09:47:39.893Z,23.60
2023-05-14T09:50:08.203Z,23.70
2023-05-14T09:52:35.544Z,23.80
2023-05-14T09:55:02.897Z,23.90
2023-05-14T09:57:30.070Z,23.90
2023-05-14T09:59:57.494Z,24.00
2023-05-14T10:02:27.166Z,24.10
2023-05-14T10:04:54.970Z,24.10
2023-05-14T10:07:30.013Z,24.20
2023-05-14T10:10:02.389Z,24.20
2023-05-14T10:12:37.205Z,24.20
2023-05-14T10:15:13.137Z,24.30
2023-05-14T10:17:44.408Z,24.30
2023-05-14T10:20:17.241Z,24.30
2023-05-14T10:22:48.062Z,24.20
2023-05-14T10:25:16.424Z,24.10
2023-05-14T10:27:44.356Z,24.20
2023-05-14T10:30:15.011Z,24.10
2023-05-14T10:32:44.890Z,24.00
2023-05-14T10:35:25.715Z,24.00
2023-05-14T10:37:53.079Z,24.00
2023-05-14T10:40:25.043Z,24.10
2023-05-14T10:42:53.129Z,24.30
2023-05-14T10:45:20.254Z,24.50
2023-05-14T10:47:49.001Z,24.60
2023-05-14T10:50:17.795Z,24.50
2023-05-14T10:52:46.056Z,24.60
2023-05-14T10:55:15.347Z,24.90
2023-05-14T10:57:45.062Z,25.00
2023-05-14T11:00:14.297Z,25.20
2023-05-14T11:02:43.491Z,25.10
2023-05-14T11:05:14.439Z,25.00
2023-05-14T11:07:50.340Z,24.90
2023-05-14T11:10:19.206Z,24.80
2023-05-14T11:12:48.509Z,24.60
2023-05-14T11:15:18.474Z,24.40
2023-05-14T11:17:47.399Z,24.40
2023-05-14T11:20:15.836Z,24.30
2023-05-14T11:22:44.270Z,24.30
2023-05-14T11:25:15.078Z,24.10
2023-05-14T11:27:44.744Z,23.80
2023-05-14T11:30:20.258Z,23.50
2023-05-14T11:32:49.752Z,23.20
2023-05-14T11:35:18.518Z,23.00
2023-05-14T11:37:55.089Z,22.80
2023-05-14T11:40:22.734Z,22.60
2023-05-14T11:42:53.318Z,22.50
2023-05-14T11:45:27.933Z,22.40
2023-05-14T11:47:55.215Z,22.40
2023-05-14T11:50:25.782Z,22.40
2023-05-14T11:52:57.564Z,22.50
2023-05-14T11:55:24.753Z,22.60
2023-05-14T11:57:52.429Z,22.70
2023-05-14T12:00:22.341Z,22.70
2023-05-14T12:02:50.402Z,22.60
2023-05-14T12:05:18.984Z,22.40
2023-05-14T12:07:47.701Z,22.30
2023-05-14T12:10:15.011Z,22.20
2023-05-14T12:12:47.659Z,22.10
2023-05-14T12:15:17.228Z,22.00
2023-05-14T12:17:51.252Z,21.90
2023-05-14T12:20:18.646Z,21.90
2023-05-14T12:22:45.860Z,21.90
2023-05-14T12:25:14.161Z,21.90
2023-05-14T12:27:41.757Z,22.00
2023-05-14T12:32:41.577Z,22.10
2023-05-14T12:35:09.835Z,22.20
2023-05-14T12:37:37.826Z,22.20
2023-05-14T12:40:11.759Z,22.30
2023-05-14T12:42:38.888Z,22.40
2023-05-14T12:45:08.962Z,22.50
2023-05-14T12:47:37.327Z,22.50
2023-05-14T12:50:06.323Z,22.70
2023-05-14T12:52:38.306Z,22.90
2023-05-14T12:55:10.266Z,23.00
2023-05-14T12:57:39.470Z,23.10
2023-05-14T13:00:08.604Z,23.20
2023-05-14T13:02:42.863Z,23.20
2023-05-14T13:05:14.552Z,23.20
2023-05-14T13:07:42.820Z,23.20
2023-05-14T13:10:10.644Z,23.20
2023-05-14T13:12:39.131Z,23.20
2023-05-14T13:15:09.689Z,23.20
2023-05-14T13:17:37.493Z,23.10
2023-05-14T13:20:05.029Z,23.00
2023-05-14T13:22:32.215Z,23.10
2023-05-14T13:24:59.485Z,23.20
2023-05-14T13:27:26.795Z,23.30
2023-05-14T13:29:53.937Z,23.50
2023-05-14T13:32:21.043Z,23.70
2023-05-14T13:34:48.291Z,23.90
2023-05-14T13:37:15.767Z,24.00
2023-05-14T13:39:42.960Z,24.10
2023-05-14T13:42:10.139Z,24.20
2023-05-14T13:44:37.247Z,24.20
2023-05-14T13:47:04.700Z,24.10
2023-05-14T13:49:31.958Z,24.20
2023-05-14T13:51:59.097Z,24.30
2023-05-14T13:54:26.302Z,24.50
2023-05-14T13:56:53.582Z,24.60
2023-05-14T13:59:21.518Z,24.70
2023-05-14T14:01:50.487Z,24.70
2023-05-14T14:04:18.275Z,24.70
2023-05-14T14:06:45.704Z,24.60
2023-05-14T14:09:14.057Z,24.60
2023-05-14T14:11:41.749Z,24.50
2023-05-14T14:14:09.001Z,24.50
2023-05-14T14:16:36.440Z,24.40
2023-05-14T14:19:03.574Z,24.30
2023-05-14T14:21:32.015Z,24.20
2023-05-14T14:23:59.298Z,24.10
2023-05-14T14:26:28.058Z,24.00
2023-05-14T14:28:55.610Z,23.90
2023-05-14T14:31:22.948Z,23.80
2023-05-14T14:33:50.146Z,23.70
2023-05-14T14:36:17.367Z,23.60
2023-05-14T14:38:44.694Z,23.40
2023-05-14T14:41:12.005Z,23.40
2023-05-14T14:43:41.389Z,23.30
2023-05-14T14:46:11.350Z,23.30
2023-05-14T14:48:38.969Z,23.20
2023-05-14T14:51:09.607Z,23.00
2023-05-14T14:53:37.364Z,23.00
2023-05-14T14:56:05.005Z,22.90
2023-05-14T14:58:32.386Z,23.00
2023-05-14T15:01:01.514Z,23.00
2023-05-14T15:03:32.012Z,23.00
2023-05-14T15:05:59.660Z,23.00
2023-05-14T15:08:28.052Z,23.10
2023-05-14T15:10:59.564Z,23.00
2023-05-14T15:13:27.330Z,23.00
2023-05-14T15:15:54.656Z,22.90
2023-05-14T15:18:22.136Z,22.80
2023-05-14T15:20:49.844Z,22.70
2023-05-14T15:23:17.064Z,22.70
2023-05-14T15:25:44.556Z,22.60
2023-05-14T15:28:11.898Z,22.50
2023-05-14T15:30:39.164Z,22.40
2023-05-14T15:33:08.904Z,22.40
2023-05-14T15:35:36.744Z,22.30
2023-05-14T15:38:04.345Z,22.30
2023-05-14T15:40:31.620Z,22.20
2023-05-14T15:42:58.896Z,22.10
2023-05-14T15:45:26.065Z,22.10
2023-05-14T15:47:55.714Z,21.90
2023-05-14T15:50:23.226Z,21.90
2023-05-14T15:52:50.582Z,21.80
2023-05-14T15:55:18.024Z,21.80
2023-05-14T15:57:45.175Z,21.80
2023-05-14T16:00:12.868Z,21.70
2023-05-14T16:02:40.569Z,21.70
2023-05-14T16:05:08.774Z,21.80
2023-05-14T16:07:37.187Z,21.80
2023-05-14T16:10:05.041Z,21.70
2023-05-14T16:12:32.275Z,21.70
2023-05-14T16:15:00.245Z,21.70
2023-05-14T16:17:28.441Z,21.60
2023-05-14T16:19:56.481Z,21.60
2023-05-14T16:22:23.963Z,21.60
2023-05-14T16:24:51.257Z,21.50
2023-05-14T16:27:21.125Z,21.50
2023-05-14T16:29:48.153Z,21.40
2023-05-14T16:32:15.465Z,21.40
2023-05-14T16:34:49.787Z,21.40
2023-05-14T16:37:17.840Z,21.40
2023-05-14T16:39:45.086Z,21.40
2023-05-14T16:42:12.211Z,21.40
2023-05-14T16:44:39.549Z,21.40
2023-05-14T16:47:06.996Z,21.30
2023-05-14T16:49:34.448Z,21.40
2023-05-14T16:52:01.644Z,21.30
2023-05-14T16:54:29.133Z,21.20
2023-05-14T16:56:56.206Z,21.20
2023-05-14T16:59:23.502Z,21.20
2023-05-14T17:01:50.941Z,21.10
2023-05-14T17:04:18.338Z,21.10
2023-05-14T17:06:46.901Z,21.20
2023-05-14T17:09:14.075Z,21.10
2023-05-14T17:11:41.196Z,21.10
2023-05-14T17:14:08.421Z,21.10
2023-05-14T17:16:35.723Z,21.10
2023-05-14T17:19:02.843Z,21.00
2023-05-14T17:21:29.949Z,21.00
2023-05-14T17:23:57.158Z,21.00
2023-05-14T17:26:24.434Z,21.00
2023-05-14T17:28:51.671Z,20.90
2023-05-14T17:31:18.882Z,20.90
2023-05-14T17:33:46.340Z,20.80
2023-05-14T17:36:13.581Z,20.80
2023-05-14T17:38:41.911Z,20.70
2023-05-14T17:41:10.057Z,20.70
2023-05-14T17:43:37.282Z,20.70
2023-05-14T17:46:05.438Z,20.70
2023-05-14T17:48:32.581Z,20.70
2023-05-14T17:50:59.602Z,20.60
2023-05-14T17:53:26.943Z,20.60
2023-05-14T17:55:54.371Z,20.50
2023-05-14T17:58:21.808Z,20.40
2023-05-14T18:00:49.379Z,20.40
2023-05-14T18:03:16.750Z,20.30
2023-05-14T18:05:44.050Z,20.30
2023-05-14T18:08:11.410Z,20.30
2023-05-14T18:10:38.498Z,20.20
2023-05-14T18:13:05.976Z,20.20
2023-05-14T18:15:33.160Z,20.20
2023-05-14T18:18:00.467Z,20.10
2023-05-14T18:20:27.624Z,20.10
2023-05-14T18:22:54.909Z,20.10
2023-05-14T18:25:22.327Z,20.10
2023-05-14T18:27:49.956Z,20.10
2023-05-14T18:30:17.411Z,20.00
2023-05-14T18:32:45.182Z,19.90
2023-05-14T18:35:13.315Z,19.90
2023-05-14T18:37:41.153Z,19.80
2023-05-14T18:40:09.132Z,19.70
2023-05-14T18:42:36.456Z,19.60
2023-05-14T18:45:04.538Z,19.60
2023-05-14T18:47:32.978Z,19.50
2023-05-14T18:50:02.185Z,19.50
2023-05-14T18:52:30.396Z,19.50
2023-05-14T18:54:57.710Z,19.40
2023-05-14T18:57:32.330Z,19.40
2023-05-14T19:00:03.460Z,19.30
2023-05-14T19:02:31.175Z,19.30
2023-05-14T19:04:58.664Z,19.30
2023-05-14T19:07:27.498Z,19.20
2023-05-14T19:09:54.616Z,19.20
2023-05-14T19:12:22.172Z,19.10
2023-05-14T19:14:49.532Z,19.00
2023-05-14T19:17:18.480Z,19.00
2023-05-14T19:19:50.193Z,18.90
2023-05-14T19:22:17.633Z,18.90
2023-05-14T19:24:44.778Z,18.90
2023-05-14T19:27:16.431Z,18.80
2023-05-14T19:29:44.764Z,18.80
2023-05-14T19:32:12.082Z,18.70
2023-05-14T19:34:39.429Z,18.60
2023-05-14T19:37:06.803Z,18.60
2023-05-14T19:39:34.265Z,18.60
2023-05-14T19:42:01.646Z,18.40
2023-05-14T19:44:28.965Z,18.40
2023-05-14T19:46:56.226Z,18.40
2023-05-14T19:49:23.586Z,18.30
2023-05-14T19:51:50.942Z,18.30
2023-05-14T19:54:18.304Z,18.20
2023-05-14T19:56:45.674Z,18.10
2023-05-14T19:59:13.025Z,18.10
2023-05-14T20:01:40.210Z,18.00
2023-05-14T20:04:07.669Z,18.00
2023-05-14T20:06:34.911Z,17.90
2023-05-14T20:09:02.401Z,17.90
2023-05-14T20:11:29.659Z,17.80
2023-05-14T20:13:57.009Z,17.80
2023-05-14T20:16:24.333Z,17.80
2023-05-14T20:18:53.681Z,17.80
2023-05-14T20:21:24.029Z,17.80
2023-05-14T20:23:51.818Z,17.80
2023-05-14T20:26:19.181Z,17.80
2023-05-14T20:28:46.572Z,17.80
2023-05-14T20:31:14.034Z,17.80
2023-05-14T20:33:41.367Z,17.80
2023-05-14T20:36:08.765Z,17.80
2023-05-14T20:38:36.437Z,17.70
2023-05-14T20:41:05.696Z,17.70
2023-05-14T20:43:32.849Z,17.70
2023-05-14T20:46:00.771Z,17.60
2023-05-14T20:48:28.461Z,17.60
2023-05-14T20:50:55.740Z,17.60
2023-05-14T20:53:23.054Z,17.50
2023-05-14T20:55:50.733Z,17.50
2023-05-14T20:58:17.966Z,17.40
2023-05-14T21:00:45.117Z,17.40
2023-05-14T21:03:12.390Z,17.40
2023-05-14T21:05:41.634Z,17.40
2023-05-14T21:08:08.780Z,17.40
2023-05-14T21:10:35.871Z,17.40
2023-05-14T21:13:03.211Z,17.40
2023-05-14T21:15:31.093Z,17.40
2023-05-14T21:17:58.648Z,17.30
2023-05-14T21:20:26.243Z,17.30
2023-05-14T21:22:53.599Z,17.30
2023-05-14T21:25:21.000Z,17.20
2023-05-14T21:27:48.425Z,17.20
2023-05-14T21:30:15.939Z,17.20
2023-05-14T21:32:43.215Z,17.20
2023-05-14T21:35:10.738Z,17.10
2023-05-14T21:37:40.041Z,17.10
2023-05-14T21:40:12.660Z,17.10
2023-05-14T21:42:41.114Z,17.10
2023-05-14T21:45:09.083Z,17.10
2023-05-14T21:47:37.526Z,17.10
2023-05-14T21:50:06.029Z,17.10
2023-05-14T21:52:33.789Z,17.10
2023-05-14T21:55:01.132Z,17.10
2023-05-14T21:57:29.210Z,17.10
2023-05-14T21:59:58.463Z,17.10
2023-05-14T22:02:25.642Z,17.00
2023-05-14T22:04:52.828Z,17.00
2023-05-14T22:07:20.094Z,16.90
2023-05-14T22:09:47.303Z,16.90
2023-05-14T22:12:14.529Z,16.90
2023-05-14T22:14:42.107Z,16.90
2023-05-14T22:17:09.860Z,16.90
2023-05-14T22:19:37.104Z,16.90
2023-05-14T22:22:04.404Z,16.80
2023-05-14T22:24:31.757Z,16.70
2023-05-14T22:26:59.016Z,16.70
2023-05-14T22:29:26.151Z,16.70
2023-05-14T22:31:53.522Z,16.70
2023-05-14T22:34:20.646Z,16.70
2023-05-14T22:36:47.940Z,16.60
2023-05-14T22:39:15.098Z,16.60
2023-05-14T22:41:42.305Z,16.60
2023-05-14T22:44:09.663Z,16.70
2023-05-14T22:46:36.948Z,16.70
2023-05-14T22:49:04.234Z,16.70
2023-05-14T22:51:31.407Z,16.70
2023-05-14T22:53:58.647Z,16.70
2023-05-14T22:56:25.840Z,16.70
2023-05-14T22:58:53.027Z,16.70
2023-05-14T23:01:20.152Z,16.60
2023-05-14T23:03:47.387Z,16.60
2023-05-14T23:06:15.095Z,16.60
2023-05-14T23:08:42.364Z,16.60
2023-05-14T23:11:10.283Z,16.60
2023-05-14T23:13:37.756Z,16.60
2023-05-14T23:16:06.251Z,16.60
2023-05-14T23:18:33.678Z,16.60
2023-05-14T23:21:01.174Z,16.60
2023-05-14T23:23:28.407Z,16.60
2023-05-14T23:25:56.460Z,16.60
2023-05-14T23:28:23.653Z,16.50
2023-05-14T23:30:50.813Z,16.50
2023-05-14T23:33:17.956Z,16.40
2023-05-14T23:35:45.400Z,16.40
2023-05-14T23:38:12.674Z,16.40
2023-05-14T23:40:39.843Z,16.30
2023-05-14T23:43:07.010Z,16.30
2023-05-14T23:45:34.420Z,16.30
2023-05-14T23:48:01.934Z,16.30
2023-05-14T23:50:29.065Z,16.20
2023-05-14T23:52:56.423Z,16.10
2023-05-14T23:55:24.542Z,16.10
2023-05-14T23:57:52.191Z,16.00
